sensor_id;sensor_type;location;lat;lon;timestamp;temperature;humidity
19256;DHT22;9762;52.490;13.410;2024-01-15T00:01:34;6.90;96.60
19256;DHT22;9762;52.490;13.410;2024-01-15T00:04:00;6.90;96.70
19256;DHT22;9762;52.490;13.410;2024-01-15T00:06:26;6.80;96.90
19256;DHT22;9762;52.490;13.410;2024-01-15T00:08:53;6.80;97.20
19256;DHT22;9762;52.490;13.410;2024-01-15T00:11:19;6.80;97.20
19256;DHT22;9762;52.490;13.410;2024-01-15T00:13:45;6.80;97.30
19256;DHT22;9762;52.490;13.410;2024-01-15T00:16:10;6.80;97.40
19256;DHT22;9762;52.490;13.410;2024-01-15T00:18:37;6.80;97.40
19256;DHT22;9762;52.490;13.410;2024-01-15T00:21:03;6.70;97.50
19256;DHT22;9762;52.490;13.410;2024-01-15T00:23:28;6.70;97.60
19256;DHT22;9762;52.490;13.410;2024-01-15T00:25:54;6.80;97.40
19256;DHT22;9762;52.490;13.410;2024-01-15T00:28:20;6.80;97.40
19256;DHT22;9762;52.490;13.410;2024-01-15T00:30:45;6.70;97.30
19256;DHT22;9762;52.490;13.410;2024-01-15T00:33:11;6.80;97.40
19256;DHT22;9762;52.490;13.410;2024-01-15T00:35:37;6.70;97.10
19256;DHT22;9762;52.490;13.410;2024-01-15T00:38:03;6.70;97.20
19256;DHT22;9762;52.490;13.410;2024-01-15T00:40:29;6.70;97.30
19256;DHT22;9762;52.490;13.410;2024-01-15T00:42:55;6.70;97.40
19256;DHT22;9762;52.490;13.410;2024-01-15T00:45:20;6.70;97.10
19256;DHT22;9762;52.490;13.410;2024-01-15T00:47:46;6.70;97.10
19256;DHT22;9762;52.490;13.410;2024-01-15T00:50:12;6.70;97.00
19256;DHT22;9762;52.490;13.410;2024-01-15T00:52:37;6.80;97.00
19256;DHT22;9762;52.490;13.410;2024-01-15T00:55:03;6.70;96.70
19256;DHT22;9762;52.490;13.410;2024-01-15T00:57:30;6.70;96.80
19256;DHT22;9762;52.490;13.410;2024-01-15T00:59:56;6.60;96.90
19256;DHT22;9762;52.490;13.410;2024-01-15T01:02:21;6.60;96.90
19256;DHT22;9762;52.490;13.410;2024-01-15T01:04:47;6.60;96.90
19256;DHT22;9762;52.490;13.410;2024-01-15T01:07:13;6.60;97.10
19256;DHT22;9762;52.490;13.410;2024-01-15T01:09:38;6.60;97.10
19256;DHT22;9762;52.490;13.410;2024-01-15T01:12:04;6.50;97.30
19256;DHT22;9762;52.490;13.410;2024-01-15T01:14:30;6.50;97.30
19256;DHT22;9762;52.490;13.410;2024-01-15T01:16:55;6.50;97.20
19256;DHT22;9762;52.490;13.410;2024-01-15T01:19:21;6.50;97.30
19256;DHT22;9762;52.490;13.410;2024-01-15T01:21:47;6.50;97.40
19256;DHT22;9762;52.490;13.410;2024-01-15T01:24:12;6.50;97.60
19256;DHT22;9762;52.490;13.410;2024-01-15T01:26:38;6.40;97.70
19256;DHT22;9762;52.490;13.410;2024-01-15T01:29:03;6.40;97.80
19256;DHT22;9762;52.490;13.410;2024-01-15T01:31:29;6.30;97.90
19256;DHT22;9762;52.490;13.410;2024-01-15T01:33:55;6.40;98.20
19256;DHT22;9762;52.490;13.410;2024-01-15T01:36:20;6.40;98.20
19256;DHT22;9762;52.490;13.410;2024-01-15T01:38:46;6.50;98.00
19256;DHT22;9762;52.490;13.410;2024-01-15T01:41:11;6.40;97.90
19256;DHT22;9762;52.490;13.410;2024-01-15T01:43:37;6.50;98.00
19256;DHT22;9762;52.490;13.410;2024-01-15T01:46:03;6.50;98.00
19256;DHT22;9762;52.490;13.410;2024-01-15T01:48:29;6.50;98.10
19256;DHT22;9762;52.490;13.410;2024-01-15T01:50:59;6.50;98.30
19256;DHT22;9762;52.490;13.410;2024-01-15T01:53:26;6.50;98.30
19256;DHT22;9762;52.490;13.410;2024-01-15T01:55:53;6.50;98.30
19256;DHT22;9762;52.490;13.410;2024-01-15T01:58:19;6.50;98.20
19256;DHT22;9762;52.490;13.410;2024-01-15T02:00:46;6.50;98.10
19256;DHT22;9762;52.490;13.410;2024-01-15T02:03:12;6.40;98.10
19256;DHT22;9762;52.490;13.410;2024-01-15T02:05:39;6.40;98.10
19256;DHT22;9762;52.490;13.410;2024-01-15T02:08:05;6.40;98.20
19256;DHT22;9762;52.490;13.410;2024-01-15T02:10:31;6.30;98.10
19256;DHT22;9762;52.490;13.410;2024-01-15T02:12:57;6.20;98.20
19256;DHT22;9762;52.490;13.410;2024-01-15T02:15:23;6.20;98.20
19256;DHT22;9762;52.490;13.410;2024-01-15T02:18:06;6.10;98.20
19256;DHT22;9762;52.490;13.410;2024-01-15T02:20:33;6.10;98.10
19256;DHT22;9762;52.490;13.410;2024-01-15T02:23:09;6.20;98.10
19256;DHT22;9762;52.490;13.410;2024-01-15T02:25:37;6.20;98.00
19256;DHT22;9762;52.490;13.410;2024-01-15T02:28:03;6.20;97.70
19256;DHT22;9762;52.490;13.410;2024-01-15T02:30:30;6.20;97.60
19256;DHT22;9762;52.490;13.410;2024-01-15T02:32:56;6.20;97.40
19256;DHT22;9762;52.490;13.410;2024-01-15T02:35:22;6.20;97.30
19256;DHT22;9762;52.490;13.410;2024-01-15T02:37:47;6.20;97.30
19256;DHT22;9762;52.490;13.410;2024-01-15T02:40:13;6.30;97.30
19256;DHT22;9762;52.490;13.410;2024-01-15T02:42:39;6.30;97.20
19256;DHT22;9762;52.490;13.410;2024-01-15T02:45:04;6.30;97.20
19256;DHT22;9762;52.490;13.410;2024-01-15T02:47:30;6.30;97.40
19256;DHT22;9762;52.490;13.410;2024-01-15T02:49:56;6.40;96.90
19256;DHT22;9762;52.490;13.410;2024-01-15T02:52:21;6.40;97.00
19256;DHT22;9762;52.490;13.410;2024-01-15T02:54:47;6.50;96.70
19256;DHT22;9762;52.490;13.410;2024-01-15T02:57:13;6.50;96.60
19256;DHT22;9762;52.490;13.410;2024-01-15T02:59:38;6.50;96.50
19256;DHT22;9762;52.490;13.410;2024-01-15T03:02:04;6.40;96.50
19256;DHT22;9762;52.490;13.410;2024-01-15T03:04:29;6.40;96.60
19256;DHT22;9762;52.490;13.410;2024-01-15T03:06:55;6.50;96.70
19256;DHT22;9762;52.490;13.410;2024-01-15T03:09:20;6.50;96.60
19256;DHT22;9762;52.490;13.410;2024-01-15T03:11:46;6.50;96.60
19256;DHT22;9762;52.490;13.410;2024-01-15T03:14:12;6.50;96.50
19256;DHT22;9762;52.490;13.410;2024-01-15T03:16:37;6.50;96.40
19256;DHT22;9762;52.490;13.410;2024-01-15T03:19:03;6.40;96.30
19256;DHT22;9762;52.490;13.410;2024-01-15T03:21:29;6.40;96.20
19256;DHT22;9762;52.490;13.410;2024-01-15T03:23:54;6.40;96.20
19256;DHT22;9762;52.490;13.410;2024-01-15T03:26:20;6.30;96.20
19256;DHT22;9762;52.490;13.410;2024-01-15T03:28:45;6.30;96.20
19256;DHT22;9762;52.490;13.410;2024-01-15T03:31:11;6.30;96.30
19256;DHT22;9762;52.490;13.410;2024-01-15T03:33:37;6.40;96.40
19256;DHT22;9762;52.490;13.410;2024-01-15T03:36:02;6.30;96.20
19256;DHT22;9762;52.490;13.410;2024-01-15T03:38:28;6.40;96.20
19256;DHT22;9762;52.490;13.410;2024-01-15T03:40:54;6.40;96.20
19256;DHT22;9762;52.490;13.410;2024-01-15T03:43:20;6.40;96.00
19256;DHT22;9762;52.490;13.410;2024-01-15T03:45:45;6.40;95.80
19256;DHT22;9762;52.490;13.410;2024-01-15T03:48:11;6.50;95.70
19256;DHT22;9762;52.490;13.410;2024-01-15T03:50:37;6.50;95.70
19256;DHT22;9762;52.490;13.410;2024-01-15T03:53:02;6.50;95.80
19256;DHT22;9762;52.490;13.410;2024-01-15T03:55:28;6.50;95.70
19256;DHT22;9762;52.490;13.410;2024-01-15T03:57:54;6.40;95.60
19256;DHT22;9762;52.490;13.410;2024-01-15T04:00:19;6.40;95.70
19256;DHT22;9762;52.490;13.410;2024-01-15T04:02:45;6.40;95.70
19256;DHT22;9762;52.490;13.410;2024-01-15T04:05:11;6.30;95.90
19256;DHT22;9762;52.490;13.410;2024-01-15T04:07:36;6.30;95.50
19256;DHT22;9762;52.490;13.410;2024-01-15T04:10:02;6.30;95.60
19256;DHT22;9762;52.490;13.410;2024-01-15T04:12:28;6.30;95.80
19256;DHT22;9762;52.490;13.410;2024-01-15T04:14:53;6.30;95.70
19256;DHT22;9762;52.490;13.410;2024-01-15T04:17:19;6.30;95.70
19256;DHT22;9762;52.490;13.410;2024-01-15T04:19:46;6.30;95.70
19256;DHT22;9762;52.490;13.410;2024-01-15T04:22:13;6.30;95.70
19256;DHT22;9762;52.490;13.410;2024-01-15T04:24:39;6.20;95.70
19256;DHT22;9762;52.490;13.410;2024-01-15T04:27:06;6.30;95.60
19256;DHT22;9762;52.490;13.410;2024-01-15T04:29:32;6.20;95.70
19256;DHT22;9762;52.490;13.410;2024-01-15T04:31:57;6.30;95.70
19256;DHT22;9762;52.490;13.410;2024-01-15T04:34:23;6.30;95.60
19256;DHT22;9762;52.490;13.410;2024-01-15T04:36:49;6.20;95.50
19256;DHT22;9762;52.490;13.410;2024-01-15T04:39:14;6.20;95.60
19256;DHT22;9762;52.490;13.410;2024-01-15T04:41:40;6.20;95.60
19256;DHT22;9762;52.490;13.410;2024-01-15T04:44:06;6.20;95.50
19256;DHT22;9762;52.490;13.410;2024-01-15T04:46:31;6.20;95.50
19256;DHT22;9762;52.490;13.410;2024-01-15T04:48:57;6.20;95.60
19256;DHT22;9762;52.490;13.410;2024-01-15T04:51:22;6.20;95.50
19256;DHT22;9762;52.490;13.410;2024-01-15T04:53:48;6.30;95.50
19256;DHT22;9762;52.490;13.410;2024-01-15T04:56:14;6.30;95.20
19256;DHT22;9762;52.490;13.410;2024-01-15T04:58:39;6.20;94.90
19256;DHT22;9762;52.490;13.410;2024-01-15T05:01:05;6.20;95.10
19256;DHT22;9762;52.490;13.410;2024-01-15T05:03:30;6.30;95.10
19256;DHT22;9762;52.490;13.410;2024-01-15T05:05:56;6.30;95.00
19256;DHT22;9762;52.490;13.410;2024-01-15T05:08:22;6.30;95.00
19256;DHT22;9762;52.490;13.410;2024-01-15T05:10:47;6.20;94.90
19256;DHT22;9762;52.490;13.410;2024-01-15T05:13:13;6.30;95.00
19256;DHT22;9762;52.490;13.410;2024-01-15T05:15:39;6.30;94.80
19256;DHT22;9762;52.490;13.410;2024-01-15T05:18:05;6.30;94.90
19256;DHT22;9762;52.490;13.410;2024-01-15T05:20:30;6.30;95.10
19256;DHT22;9762;52.490;13.410;2024-01-15T05:22:56;6.30;95.30
19256;DHT22;9762;52.490;13.410;2024-01-15T05:25:22;6.20;95.60
19256;DHT22;9762;52.490;13.410;2024-01-15T05:27:48;6.30;95.60
19256;DHT22;9762;52.490;13.410;2024-01-15T05:30:14;6.30;95.60
19256;DHT22;9762;52.490;13.410;2024-01-15T05:32:40;6.30;95.50
19256;DHT22;9762;52.490;13.410;2024-01-15T05:35:06;6.40;95.40
19256;DHT22;9762;52.490;13.410;2024-01-15T05:37:31;6.30;95.30
19256;DHT22;9762;52.490;13.410;2024-01-15T05:39:57;6.30;95.40
19256;DHT22;9762;52.490;13.410;2024-01-15T05:42:23;6.40;95.40
19256;DHT22;9762;52.490;13.410;2024-01-15T05:44:48;6.30;95.20
19256;DHT22;9762;52.490;13.410;2024-01-15T05:47:14;6.30;95.10
19256;DHT22;9762;52.490;13.410;2024-01-15T05:49:39;6.30;95.20
19256;DHT22;9762;52.490;13.410;2024-01-15T05:52:05;6.40;95.30
19256;DHT22;9762;52.490;13.410;2024-01-15T05:54:31;6.30;95.20
19256;DHT22;9762;52.490;13.410;2024-01-15T05:56:56;6.30;95.20
19256;DHT22;9762;52.490;13.410;2024-01-15T05:59:22;6.30;95.40
19256;DHT22;9762;52.490;13.410;2024-01-15T06:01:48;6.30;95.70
19256;DHT22;9762;52.490;13.410;2024-01-15T06:04:13;6.40;96.00
19256;DHT22;9762;52.490;13.410;2024-01-15T06:06:39;6.40;96.00
19256;DHT22;9762;52.490;13.410;2024-01-15T06:09:04;6.30;96.00
19256;DHT22;9762;52.490;13.410;2024-01-15T06:11:34;6.30;96.20
19256;DHT22;9762;52.490;13.410;2024-01-15T06:14:00;6.30;96.20
19256;DHT22;9762;52.490;13.410;2024-01-15T06:16:26;6.30;96.10
19256;DHT22;9762;52.490;13.410;2024-01-15T06:18:51;6.30;96.20
19256;DHT22;9762;52.490;13.410;2024-01-15T06:21:17;6.30;96.10
19256;DHT22;9762;52.490;13.410;2024-01-15T06:23:43;6.40;95.90
19256;DHT22;9762;52.490;13.410;2024-01-15T06:26:11;6.30;95.80
19256;DHT22;9762;52.490;13.410;2024-01-15T06:28:36;6.30;95.80
19256;DHT22;9762;52.490;13.410;2024-01-15T06:31:02;6.30;95.60
19256;DHT22;9762;52.490;13.410;2024-01-15T06:33:28;6.30;95.60
19256;DHT22;9762;52.490;13.410;2024-01-15T06:35:54;6.30;95.70
19256;DHT22;9762;52.490;13.410;2024-01-15T06:38:19;6.30;96.10
19256;DHT22;9762;52.490;13.410;2024-01-15T06:40:45;6.30;96.20
19256;DHT22;9762;52.490;13.410;2024-01-15T06:43:14;6.20;96.20
19256;DHT22;9762;52.490;13.410;2024-01-15T06:45:40;6.30;96.30
19256;DHT22;9762;52.490;13.410;2024-01-15T06:48:06;6.30;96.30
19256;DHT22;9762;52.490;13.410;2024-01-15T06:50:32;6.30;96.50
19256;DHT22;9762;52.490;13.410;2024-01-15T06:52:58;6.30;96.40
19256;DHT22;9762;52.490;13.410;2024-01-15T06:55:24;6.30;96.20
19256;DHT22;9762;52.490;13.410;2024-01-15T06:57:51;6.30;96.00
19256;DHT22;9762;52.490;13.410;2024-01-15T07:00:17;6.40;96.10
19256;DHT22;9762;52.490;13.410;2024-01-15T07:02:43;6.40;95.90
19256;DHT22;9762;52.490;13.410;2024-01-15T07:05:09;6.40;96.10
19256;DHT22;9762;52.490;13.410;2024-01-15T07:07:35;6.40;95.80
19256;DHT22;9762;52.490;13.410;2024-01-15T07:10:01;6.40;95.70
19256;DHT22;9762;52.490;13.410;2024-01-15T07:12:27;6.40;95.60
19256;DHT22;9762;52.490;13.410;2024-01-15T07:14:52;6.30;95.60
19256;DHT22;9762;52.490;13.410;2024-01-15T07:17:18;6.30;95.90
19256;DHT22;9762;52.490;13.410;2024-01-15T07:19:44;6.30;95.60
19256;DHT22;9762;52.490;13.410;2024-01-15T07:22:09;6.40;95.50
19256;DHT22;9762;52.490;13.410;2024-01-15T07:24:36;6.30;95.20
19256;DHT22;9762;52.490;13.410;2024-01-15T07:27:01;6.40;95.20
19256;DHT22;9762;52.490;13.410;2024-01-15T07:29:30;6.40;95.20
19256;DHT22;9762;52.490;13.410;2024-01-15T07:31:58;6.40;95.10
19256;DHT22;9762;52.490;13.410;2024-01-15T07:34:23;6.50;95.10
19256;DHT22;9762;52.490;13.410;2024-01-15T07:36:49;6.40;95.00
19256;DHT22;9762;52.490;13.410;2024-01-15T07:39:15;6.30;94.90
19256;DHT22;9762;52.490;13.410;2024-01-15T07:41:40;6.30;94.90
19256;DHT22;9762;52.490;13.410;2024-01-15T07:44:06;6.30;95.00
19256;DHT22;9762;52.490;13.410;2024-01-15T07:46:32;6.30;95.00
19256;DHT22;9762;52.490;13.410;2024-01-15T07:48:57;6.30;94.90
19256;DHT22;9762;52.490;13.410;2024-01-15T07:51:24;6.40;94.80
19256;DHT22;9762;52.490;13.410;2024-01-15T07:53:50;6.50;94.80
19256;DHT22;9762;52.490;13.410;2024-01-15T07:56:16;6.60;94.70
19256;DHT22;9762;52.490;13.410;2024-01-15T07:58:42;6.70;94.60
19256;DHT22;9762;52.490;13.410;2024-01-15T08:01:08;6.70;94.50
19256;DHT22;9762;52.490;13.410;2024-01-15T08:03:33;6.80;94.20
19256;DHT22;9762;52.490;13.410;2024-01-15T08:05:59;6.80;94.10
19256;DHT22;9762;52.490;13.410;2024-01-15T08:08:25;6.90;94.00
19256;DHT22;9762;52.490;13.410;2024-01-15T08:10:54;6.90;94.00
19256;DHT22;9762;52.490;13.410;2024-01-15T08:13:19;7.00;94.00
19256;DHT22;9762;52.490;13.410;2024-01-15T08:15:46;7.00;93.90
19256;DHT22;9762;52.490;13.410;2024-01-15T08:18:11;7.00;93.80
19256;DHT22;9762;52.490;13.410;2024-01-15T08:20:37;7.00;93.70
19256;DHT22;9762;52.490;13.410;2024-01-15T08:23:03;7.10;93.70
19256;DHT22;9762;52.490;13.410;2024-01-15T08:25:29;7.10;93.60
19256;DHT22;9762;52.490;13.410;2024-01-15T08:27:56;7.10;93.60
19256;DHT22;9762;52.490;13.410;2024-01-15T08:30:23;7.10;93.50
19256;DHT22;9762;52.490;13.410;2024-01-15T08:32:53;7.10;93.60
19256;DHT22;9762;52.490;13.410;2024-01-15T08:35:19;7.10;93.50
19256;DHT22;9762;52.490;13.410;2024-01-15T08:37:54;7.10;93.70
19256;DHT22;9762;52.490;13.410;2024-01-15T08:40:19;7.20;93.60
19256;DHT22;9762;52.490;13.410;2024-01-15T08:42:45;7.20;93.60
19256;DHT22;9762;52.490;13.410;2024-01-15T08:45:11;7.30;93.50
19256;DHT22;9762;52.490;13.410;2024-01-15T08:47:37;7.00;93.20
19256;DHT22;9762;52.490;13.410;2024-01-15T08:50:03;7.30;93.00
19256;DHT22;9762;52.490;13.410;2024-01-15T08:52:29;7.20;93.10
19256;DHT22;9762;52.490;13.410;2024-01-15T08:54:58;7.20;93.30
19256;DHT22;9762;52.490;13.410;2024-01-15T08:57:24;7.30;93.20
19256;DHT22;9762;52.490;13.410;2024-01-15T08:59:49;7.30;93.00
19256;DHT22;9762;52.490;13.410;2024-01-15T09:02:16;7.30;93.00
19256;DHT22;9762;52.490;13.410;2024-01-15T09:04:42;7.30;93.30
19256;DHT22;9762;52.490;13.410;2024-01-15T09:07:07;7.30;93.00
19256;DHT22;9762;52.490;13.410;2024-01-15T09:09:33;7.20;93.20
19256;DHT22;9762;52.490;13.410;2024-01-15T09:12:00;7.20;93.00
19256;DHT22;9762;52.490;13.410;2024-01-15T09:14:26;7.10;93.20
19256;DHT22;9762;52.490;13.410;2024-01-15T09:16:53;7.20;93.50
19256;DHT22;9762;52.490;13.410;2024-01-15T09:19:19;7.20;93.50
19256;DHT22;9762;52.490;13.410;2024-01-15T09:21:44;7.20;93.60
19256;DHT22;9762;52.490;13.410;2024-01-15T09:24:11;7.20;93.30
19256;DHT22;9762;52.490;13.410;2024-01-15T09:26:36;7.20;93.50
19256;DHT22;9762;52.490;13.410;2024-01-15T09:29:02;7.30;93.60
19256;DHT22;9762;52.490;13.410;2024-01-15T09:31:28;7.30;93.50
19256;DHT22;9762;52.490;13.410;2024-01-15T09:33:54;7.30;93.40
19256;DHT22;9762;52.490;13.410;2024-01-15T09:36:24;7.30;93.30
19256;DHT22;9762;52.490;13.410;2024-01-15T09:38:51;7.40;93.40
19256;DHT22;9762;52.490;13.410;2024-01-15T09:41:16;7.40;93.20
19256;DHT22;9762;52.490;13.410;2024-01-15T09:43:42;7.30;93.00
19256;DHT22;9762;52.490;13.410;2024-01-15T09:46:08;7.30;93.10
19256;DHT22;9762;52.490;13.410;2024-01-15T09:48:34;7.20;93.20
19256;DHT22;9762;52.490;13.410;2024-01-15T09:51:01;7.10;93.20
19256;DHT22;9762;52.490;13.410;2024-01-15T09:53:27;7.20;93.50
19256;DHT22;9762;52.490;13.410;2024-01-15T09:55:53;7.20;93.30
19256;DHT22;9762;52.490;13.410;2024-01-15T09:58:19;7.20;93.60
19256;DHT22;9762;52.490;13.410;2024-01-15T10:00:45;7.20;93.50
19256;DHT22;9762;52.490;13.410;2024-01-15T10:03:13;7.10;93.60
19256;DHT22;9762;52.490;13.410;2024-01-15T10:05:39;7.10;94.10
19256;DHT22;9762;52.490;13.410;2024-01-15T10:08:05;7.20;94.20
19256;DHT22;9762;52.490;13.410;2024-01-15T10:10:31;7.30;93.90
19256;DHT22;9762;52.490;13.410;2024-01-15T10:12:58;7.30;93.70
19256;DHT22;9762;52.490;13.410;2024-01-15T10:15:26;7.40;93.40
19256;DHT22;9762;52.490;13.410;2024-01-15T10:17:52;7.40;93.20
19256;DHT22;9762;52.490;13.410;2024-01-15T10:20:17;7.40;93.30
19256;DHT22;9762;52.490;13.410;2024-01-15T10:22:44;7.50;93.40
19256;DHT22;9762;52.490;13.410;2024-01-15T10:25:13;7.50;93.00
19256;DHT22;9762;52.490;13.410;2024-01-15T10:27:40;7.50;93.00
19256;DHT22;9762;52.490;13.410;2024-01-15T10:30:07;7.50;93.00
19256;DHT22;9762;52.490;13.410;2024-01-15T10:32:33;7.50;93.00
19256;DHT22;9762;52.490;13.410;2024-01-15T10:34:59;7.50;93.00
19256;DHT22;9762;52.490;13.410;2024-01-15T10:37:25;7.60;93.00
19256;DHT22;9762;52.490;13.410;2024-01-15T10:39:52;7.60;92.90
19256;DHT22;9762;52.490;13.410;2024-01-15T10:42:18;7.60;92.80
19256;DHT22;9762;52.490;13.410;2024-01-15T10:44:44;7.50;92.90
19256;DHT22;9762;52.490;13.410;2024-01-15T10:47:12;7.60;93.00
19256;DHT22;9762;52.490;13.410;2024-01-15T10:49:38;7.70;92.80
19256;DHT22;9762;52.490;13.410;2024-01-15T10:52:05;7.70;92.60
19256;DHT22;9762;52.490;13.410;2024-01-15T10:54:32;7.60;92.50
19256;DHT22;9762;52.490;13.410;2024-01-15T10:56:58;7.50;92.30
19256;DHT22;9762;52.490;13.410;2024-01-15T10:59:24;7.50;92.50
19256;DHT22;9762;52.490;13.410;2024-01-15T11:01:51;7.50;92.50
19256;DHT22;9762;52.490;13.410;2024-01-15T11:04:22;7.40;92.60
19256;DHT22;9762;52.490;13.410;2024-01-15T11:06:53;7.40;92.70
19256;DHT22;9762;52.490;13.410;2024-01-15T11:09:19;7.30;92.70
19256;DHT22;9762;52.490;13.410;2024-01-15T11:11:46;7.40;93.20
19256;DHT22;9762;52.490;13.410;2024-01-15T11:14:35;7.30;92.80
19256;DHT22;9762;52.490;13.410;2024-01-15T11:17:01;7.30;92.90
19256;DHT22;9762;52.490;13.410;2024-01-15T11:19:45;7.30;92.80
19256;DHT22;9762;52.490;13.410;2024-01-15T11:24:56;7.40;92.90
19256;DHT22;9762;52.490;13.410;2024-01-15T11:30:11;7.40;93.00
19256;DHT22;9762;52.490;13.410;2024-01-15T11:32:38;7.40;93.00
19256;DHT22;9762;52.490;13.410;2024-01-15T11:35:07;7.40;93.20
19256;DHT22;9762;52.490;13.410;2024-01-15T11:42:58;7.40;93.50
19256;DHT22;9762;52.490;13.410;2024-01-15T11:45:24;7.40;93.70
19256;DHT22;9762;52.490;13.410;2024-01-15T11:50:44;7.20;94.30
19256;DHT22;9762;52.490;13.410;2024-01-15T11:53:29;7.20;94.50
19256;DHT22;9762;52.490;13.410;2024-01-15T11:55:58;7.20;94.70
19256;DHT22;9762;52.490;13.410;2024-01-15T11:58:25;7.20;95.00
19256;DHT22;9762;52.490;13.410;2024-01-15T12:00:51;7.10;94.80
19256;DHT22;9762;52.490;13.410;2024-01-15T12:03:21;7.10;95.00
19256;DHT22;9762;52.490;13.410;2024-01-15T12:05:47;7.10;95.00
19256;DHT22;9762;52.490;13.410;2024-01-15T12:08:13;7.10;95.10
19256;DHT22;9762;52.490;13.410;2024-01-15T12:10:40;7.10;95.60
19256;DHT22;9762;52.490;13.410;2024-01-15T12:13:13;7.10;95.80
19256;DHT22;9762;52.490;13.410;2024-01-15T12:15:39;7.10;95.60
19256;DHT22;9762;52.490;13.410;2024-01-15T12:18:09;7.10;95.60
19256;DHT22;9762;52.490;13.410;2024-01-15T12:20:35;7.10;95.30
19256;DHT22;9762;52.490;13.410;2024-01-15T12:23:02;7.00;95.20
19256;DHT22;9762;52.490;13.410;2024-01-15T12:25:31;6.90;95.30
19256;DHT22;9762;52.490;13.410;2024-01-15T12:27:59;6.80;95.60
19256;DHT22;9762;52.490;13.410;2024-01-15T12:30:29;6.80;95.60
19256;DHT22;9762;52.490;13.410;2024-01-15T12:32:57;6.80;95.50
19256;DHT22;9762;52.490;13.410;2024-01-15T12:35:24;6.70;95.60
19256;DHT22;9762;52.490;13.410;2024-01-15T12:37:51;6.80;95.60
19256;DHT22;9762;52.490;13.410;2024-01-15T12:40:21;6.80;95.60
19256;DHT22;9762;52.490;13.410;2024-01-15T12:42:47;6.80;95.30
19256;DHT22;9762;52.490;13.410;2024-01-15T12:45:13;6.80;95.30
19256;DHT22;9762;52.490;13.410;2024-01-15T12:47:39;6.70;95.60
19256;DHT22;9762;52.490;13.410;2024-01-15T12:50:12;6.70;95.90
19256;DHT22;9762;52.490;13.410;2024-01-15T12:52:40;6.60;96.40
19256;DHT22;9762;52.490;13.410;2024-01-15T12:55:07;6.50;96.50
19256;DHT22;9762;52.490;13.410;2024-01-15T12:57:35;6.50;96.60
19256;DHT22;9762;52.490;13.410;2024-01-15T13:00:01;6.50;96.80
19256;DHT22;9762;52.490;13.410;2024-01-15T13:02:26;6.40;97.00
19256;DHT22;9762;52.490;13.410;2024-01-15T13:04:52;6.30;97.00
19256;DHT22;9762;52.490;13.410;2024-01-15T13:07:19;6.40;97.30
19256;DHT22;9762;52.490;13.410;2024-01-15T13:09:45;6.70;97.20
19256;DHT22;9762;52.490;13.410;2024-01-15T13:12:10;6.40;97.20
19256;DHT22;9762;52.490;13.410;2024-01-15T13:14:37;6.40;97.20
19256;DHT22;9762;52.490;13.410;2024-01-15T13:17:02;6.50;97.00
19256;DHT22;9762;52.490;13.410;2024-01-15T13:19:29;6.40;97.00
19256;DHT22;9762;52.490;13.410;2024-01-15T13:21:54;6.40;97.20
19256;DHT22;9762;52.490;13.410;2024-01-15T13:24:22;6.30;97.10
19256;DHT22;9762;52.490;13.410;2024-01-15T13:26:48;6.30;97.10
19256;DHT22;9762;52.490;13.410;2024-01-15T13:29:13;6.30;97.10
19256;DHT22;9762;52.490;13.410;2024-01-15T13:31:40;6.30;97.20
19256;DHT22;9762;52.490;13.410;2024-01-15T13:34:06;6.40;97.00
19256;DHT22;9762;52.490;13.410;2024-01-15T13:36:32;6.40;97.00
19256;DHT22;9762;52.490;13.410;2024-01-15T13:38:58;6.40;96.90
19256;DHT22;9762;52.490;13.410;2024-01-15T13:41:24;6.50;96.70
19256;DHT22;9762;52.490;13.410;2024-01-15T13:43:53;6.60;96.50
19256;DHT22;9762;52.490;13.410;2024-01-15T13:46:20;6.60;96.50
19256;DHT22;9762;52.490;13.410;2024-01-15T13:48:47;6.60;96.70
19256;DHT22;9762;52.490;13.410;2024-01-15T13:51:13;6.70;96.80
19256;DHT22;9762;52.490;13.410;2024-01-15T13:53:38;6.70;96.70
19256;DHT22;9762;52.490;13.410;2024-01-15T13:56:05;6.70;96.70
19256;DHT22;9762;52.490;13.410;2024-01-15T13:58:32;6.60;96.60
19256;DHT22;9762;52.490;13.410;2024-01-15T14:00:58;6.60;96.60
19256;DHT22;9762;52.490;13.410;2024-01-15T14:03:24;6.60;96.70
19256;DHT22;9762;52.490;13.410;2024-01-15T14:05:54;6.70;96.40
19256;DHT22;9762;52.490;13.410;2024-01-15T14:08:19;6.70;96.10
19256;DHT22;9762;52.490;13.410;2024-01-15T14:10:45;6.70;95.90
19256;DHT22;9762;52.490;13.410;2024-01-15T14:13:11;6.70;95.80
19256;DHT22;9762;52.490;13.410;2024-01-15T14:15:36;6.60;95.60
19256;DHT22;9762;52.490;13.410;2024-01-15T14:18:02;6.60;95.90
19256;DHT22;9762;52.490;13.410;2024-01-15T14:20:28;6.60;95.80
19256;DHT22;9762;52.490;13.410;2024-01-15T14:22:54;6.60;95.70
19256;DHT22;9762;52.490;13.410;2024-01-15T14:25:23;6.70;95.70
19256;DHT22;9762;52.490;13.410;2024-01-15T14:27:49;6.70;95.60
19256;DHT22;9762;52.490;13.410;2024-01-15T14:30:16;6.60;95.60
19256;DHT22;9762;52.490;13.410;2024-01-15T14:32:42;6.70;95.60
19256;DHT22;9762;52.490;13.410;2024-01-15T14:35:09;6.70;95.50
19256;DHT22;9762;52.490;13.410;2024-01-15T14:37:37;6.70;95.30
19256;DHT22;9762;52.490;13.410;2024-01-15T14:40:07;6.70;95.50
19256;DHT22;9762;52.490;13.410;2024-01-15T14:42:33;6.70;95.40
19256;DHT22;9762;52.490;13.410;2024-01-15T14:44:59;6.70;95.40
19256;DHT22;9762;52.490;13.410;2024-01-15T14:47:25;6.70;95.30
19256;DHT22;9762;52.490;13.410;2024-01-15T14:49:52;6.80;95.20
19256;DHT22;9762;52.490;13.410;2024-01-15T14:52:17;6.80;94.90
19256;DHT22;9762;52.490;13.410;2024-01-15T14:54:43;6.80;94.80
19256;DHT22;9762;52.490;13.410;2024-01-15T14:57:09;6.70;94.80
19256;DHT22;9762;52.490;13.410;2024-01-15T14:59:34;6.60;95.00
19256;DHT22;9762;52.490;13.410;2024-01-15T15:02:00;6.70;95.20
19256;DHT22;9762;52.490;13.410;2024-01-15T15:04:26;6.80;95.10
19256;DHT22;9762;52.490;13.410;2024-01-15T15:06:52;6.80;95.10
19256;DHT22;9762;52.490;13.410;2024-01-15T15:09:17;6.90;94.90
19256;DHT22;9762;52.490;13.410;2024-01-15T15:11:43;6.90;94.70
19256;DHT22;9762;52.490;13.410;2024-01-15T15:14:09;6.90;94.50
19256;DHT22;9762;52.490;13.410;2024-01-15T15:16:34;6.90;94.40
19256;DHT22;9762;52.490;13.410;2024-01-15T15:19:00;6.90;94.40
19256;DHT22;9762;52.490;13.410;2024-01-15T15:21:26;6.90;94.20
19256;DHT22;9762;52.490;13.410;2024-01-15T15:23:52;6.90;94.20
19256;DHT22;9762;52.490;13.410;2024-01-15T15:26:17;7.00;94.20
19256;DHT22;9762;52.490;13.410;2024-01-15T15:28:43;7.00;94.20
19256;DHT22;9762;52.490;13.410;2024-01-15T15:31:09;7.00;94.10
19256;DHT22;9762;52.490;13.410;2024-01-15T15:33:36;7.00;94.10
19256;DHT22;9762;52.490;13.410;2024-01-15T15:36:02;7.10;94.40
19256;DHT22;9762;52.490;13.410;2024-01-15T15:38:31;7.00;94.20
19256;DHT22;9762;52.490;13.410;2024-01-15T15:40:56;6.90;94.70
19256;DHT22;9762;52.490;13.410;2024-01-15T15:43:22;7.00;95.00
19256;DHT22;9762;52.490;13.410;2024-01-15T15:45:48;6.90;95.20
19256;DHT22;9762;52.490;13.410;2024-01-15T15:48:14;6.90;95.50
19256;DHT22;9762;52.490;13.410;2024-01-15T15:50:39;6.90;95.70
19256;DHT22;9762;52.490;13.410;2024-01-15T15:53:05;7.00;95.90